sensor_id;sensor_type;location;lat;lon;timestamp;temperature;humidity
68691;DHT22;55675;49.588;8.640;2022-10-16T00:00:43;18.50;98.60
68691;DHT22;55675;49.588;8.640;2022-10-16T00:03:09;18.50;98.50
68691;DHT22;55675;49.588;8.640;2022-10-16T00:05:42;18.60;98.40
68691;DHT22;55675;49.588;8.640;2022-10-16T00:08:09;18.60;98.30
68691;DHT22;55675;49.588;8.640;2022-10-16T00:10:35;18.60;98.30
68691;DHT22;55675;49.588;8.640;2022-10-16T00:13:01;18.60;98.20
68691;DHT22;55675;49.588;8.640;2022-10-16T00:15:26;18.50;98.30
68691;DHT22;55675;49.588;8.640;2022-10-16T00:17:52;18.50;98.40
68691;DHT22;55675;49.588;8.640;2022-10-16T00:20:18;18.50;98.40
68691;DHT22;55675;49.588;8.640;2022-10-16T00:22:43;18.60;98.40
68691;DHT22;55675;49.588;8.640;2022-10-16T00:25:09;18.50;98.40
68691;DHT22;55675;49.588;8.640;2022-10-16T00:27:34;18.50;98.30
68691;DHT22;55675;49.588;8.640;2022-10-16T00:30:00;18.50;98.30
68691;DHT22;55675;49.588;8.640;2022-10-16T00:32:25;18.60;98.30
68691;DHT22;55675;49.588;8.640;2022-10-16T00:34:51;18.50;98.30
68691;DHT22;55675;49.588;8.640;2022-10-16T00:37:16;18.50;98.30
68691;DHT22;55675;49.588;8.640;2022-10-16T00:39:42;18.50;98.40
68691;DHT22;55675;49.588;8.640;2022-10-16T00:42:14;18.50;98.40
68691;DHT22;55675;49.588;8.640;2022-10-16T00:47:15;18.60;98.40
68691;DHT22;55675;49.588;8.640;2022-10-16T00:49:43;18.60;98.40
68691;DHT22;55675;49.588;8.640;2022-10-16T00:52:09;18.60;98.40
68691;DHT22;55675;49.588;8.640;2022-10-16T00:54:35;18.70;98.30
68691;DHT22;55675;49.588;8.640;2022-10-16T00:57:04;18.60;98.20
68691;DHT22;55675;49.588;8.640;2022-10-16T00:59:35;18.60;98.30
68691;DHT22;55675;49.588;8.640;2022-10-16T01:02:01;18.60;98.20
68691;DHT22;55675;49.588;8.640;2022-10-16T01:04:32;18.60;98.30
68691;DHT22;55675;49.588;8.640;2022-10-16T01:20:44;18.50;98.00
68691;DHT22;55675;49.588;8.640;2022-10-16T01:23:33;18.50;98.00
68691;DHT22;55675;49.588;8.640;2022-10-16T01:26:36;18.50;97.90
68691;DHT22;55675;49.588;8.640;2022-10-16T01:29:29;18.50;97.90
68691;DHT22;55675;49.588;8.640;2022-10-16T01:32:00;18.40;97.90
68691;DHT22;55675;49.588;8.640;2022-10-16T01:34:52;18.40;98.10
68691;DHT22;55675;49.588;8.640;2022-10-16T01:37:47;18.40;98.20
68691;DHT22;55675;49.588;8.640;2022-10-16T01:40:12;18.40;98.20
68691;DHT22;55675;49.588;8.640;2022-10-16T01:42:44;18.40;98.20
68691;DHT22;55675;49.588;8.640;2022-10-16T01:45:13;18.40;98.30
68691;DHT22;55675;49.588;8.640;2022-10-16T01:47:41;18.40;98.30
68691;DHT22;55675;49.588;8.640;2022-10-16T01:50:08;18.40;98.30
68691;DHT22;55675;49.588;8.640;2022-10-16T01:52:39;18.40;98.40
68691;DHT22;55675;49.588;8.640;2022-10-16T01:55:08;18.30;98.40
68691;DHT22;55675;49.588;8.640;2022-10-16T01:57:36;18.30;98.40
68691;DHT22;55675;49.588;8.640;2022-10-16T02:00:08;18.30;98.40
68691;DHT22;55675;49.588;8.640;2022-10-16T02:02:35;18.30;98.40
68691;DHT22;55675;49.588;8.640;2022-10-16T02:05:05;18.30;98.40
68691;DHT22;55675;49.588;8.640;2022-10-16T02:07:32;18.30;98.40
68691;DHT22;55675;49.588;8.640;2022-10-16T02:09:57;18.20;98.40
68691;DHT22;55675;49.588;8.640;2022-10-16T02:12:32;18.20;98.40
68691;DHT22;55675;49.588;8.640;2022-10-16T02:14:59;18.20;98.40
68691;DHT22;55675;49.588;8.640;2022-10-16T02:17:25;18.20;98.40
68691;DHT22;55675;49.588;8.640;2022-10-16T02:19:53;18.20;98.40
68691;DHT22;55675;49.588;8.640;2022-10-16T02:22:40;18.20;98.40
68691;DHT22;55675;49.588;8.640;2022-10-16T02:25:11;18.30;98.20
68691;DHT22;55675;49.588;8.640;2022-10-16T02:27:55;18.30;98.20
68691;DHT22;55675;49.588;8.640;2022-10-16T02:30:25;18.30;98.20
68691;DHT22;55675;49.588;8.640;2022-10-16T02:32:53;18.20;98.30
68691;DHT22;55675;49.588;8.640;2022-10-16T02:35:21;18.20;98.30
68691;DHT22;55675;49.588;8.640;2022-10-16T02:37:49;18.20;98.40
68691;DHT22;55675;49.588;8.640;2022-10-16T02:40:15;18.20;98.40
68691;DHT22;55675;49.588;8.640;2022-10-16T02:42:42;18.20;98.40
68691;DHT22;55675;49.588;8.640;2022-10-16T02:45:09;18.20;98.40
68691;DHT22;55675;49.588;8.640;2022-10-16T02:47:35;18.20;98.40
68691;DHT22;55675;49.588;8.640;2022-10-16T02:50:01;18.20;98.30
68691;DHT22;55675;49.588;8.640;2022-10-16T02:52:26;18.20;98.40
68691;DHT22;55675;49.588;8.640;2022-10-16T02:54:52;18.20;98.40
68691;DHT22;55675;49.588;8.640;2022-10-16T02:57:18;18.20;98.40
68691;DHT22;55675;49.588;8.640;2022-10-16T02:59:44;18.30;98.40
68691;DHT22;55675;49.588;8.640;2022-10-16T03:02:10;18.30;98.30
68691;DHT22;55675;49.588;8.640;2022-10-16T03:04:36;18.30;98.20
68691;DHT22;55675;49.588;8.640;2022-10-16T03:07:02;18.30;98.20
68691;DHT22;55675;49.588;8.640;2022-10-16T03:09:27;18.30;98.20
68691;DHT22;55675;49.588;8.640;2022-10-16T03:11:53;18.30;98.20
68691;DHT22;55675;49.588;8.640;2022-10-16T03:14:18;18.40;98.10
68691;DHT22;55675;49.588;8.640;2022-10-16T03:16:44;18.30;98.00
68691;DHT22;55675;49.588;8.640;2022-10-16T03:19:09;18.30;98.00
68691;DHT22;55675;49.588;8.640;2022-10-16T03:21:35;18.20;98.00
68691;DHT22;55675;49.588;8.640;2022-10-16T03:24:00;18.20;98.10
68691;DHT22;55675;49.588;8.640;2022-10-16T03:26:26;18.20;98.20
68691;DHT22;55675;49.588;8.640;2022-10-16T03:28:51;18.20;98.10
68691;DHT22;55675;49.588;8.640;2022-10-16T03:31:17;18.20;98.10
68691;DHT22;55675;49.588;8.640;2022-10-16T03:33:42;18.30;98.10
68691;DHT22;55675;49.588;8.640;2022-10-16T03:36:08;18.30;98.00
68691;DHT22;55675;49.588;8.640;2022-10-16T03:38:34;18.30;98.00
68691;DHT22;55675;49.588;8.640;2022-10-16T03:40:59;18.30;98.00
68691;DHT22;55675;49.588;8.640;2022-10-16T03:43:25;18.30;98.00
68691;DHT22;55675;49.588;8.640;2022-10-16T03:45:51;18.30;98.00
68691;DHT22;55675;49.588;8.640;2022-10-16T03:48:17;18.20;98.00
68691;DHT22;55675;49.588;8.640;2022-10-16T03:50:43;18.20;97.90
68691;DHT22;55675;49.588;8.640;2022-10-16T03:53:09;18.20;98.00
68691;DHT22;55675;49.588;8.640;2022-10-16T03:55:34;18.20;98.00
68691;DHT22;55675;49.588;8.640;2022-10-16T03:58:00;18.20;98.00
68691;DHT22;55675;49.588;8.640;2022-10-16T04:00:26;18.20;98.20
68691;DHT22;55675;49.588;8.640;2022-10-16T04:02:52;18.20;98.10
68691;DHT22;55675;49.588;8.640;2022-10-16T04:05:17;18.20;98.10
68691;DHT22;55675;49.588;8.640;2022-10-16T04:07:43;18.20;97.90
68691;DHT22;55675;49.588;8.640;2022-10-16T04:10:08;18.20;97.80
68691;DHT22;55675;49.588;8.640;2022-10-16T04:12:34;18.20;97.90
68691;DHT22;55675;49.588;8.640;2022-10-16T04:14:59;18.30;97.80
68691;DHT22;55675;49.588;8.640;2022-10-16T04:17:25;18.30;97.80
68691;DHT22;55675;49.588;8.640;2022-10-16T04:19:51;18.30;97.60
68691;DHT22;55675;49.588;8.640;2022-10-16T04:22:16;18.30;97.60
68691;DHT22;55675;49.588;8.640;2022-10-16T04:24:42;18.40;97.60
68691;DHT22;55675;49.588;8.640;2022-10-16T04:27:07;18.30;97.60
68691;DHT22;55675;49.588;8.640;2022-10-16T04:29:33;18.40;97.60
68691;DHT22;55675;49.588;8.640;2022-10-16T04:31:58;18.40;97.60
68691;DHT22;55675;49.588;8.640;2022-10-16T04:34:24;18.40;97.60
68691;DHT22;55675;49.588;8.640;2022-10-16T04:36:49;18.40;97.50
68691;DHT22;55675;49.588;8.640;2022-10-16T04:39:15;18.40;97.50
68691;DHT22;55675;49.588;8.640;2022-10-16T04:41:41;18.30;97.50
68691;DHT22;55675;49.588;8.640;2022-10-16T04:44:07;18.30;97.50
68691;DHT22;55675;49.588;8.640;2022-10-16T04:46:32;18.20;97.60
68691;DHT22;55675;49.588;8.640;2022-10-16T04:48:58;18.20;97.70
68691;DHT22;55675;49.588;8.640;2022-10-16T04:51:23;18.20;97.70
68691;DHT22;55675;49.588;8.640;2022-10-16T04:53:50;18.20;97.60
68691;DHT22;55675;49.588;8.640;2022-10-16T04:56:16;18.20;97.70
68691;DHT22;55675;49.588;8.640;2022-10-16T04:58:41;18.20;97.60
68691;DHT22;55675;49.588;8.640;2022-10-16T05:01:07;18.10;97.60
68691;DHT22;55675;49.588;8.640;2022-10-16T05:03:33;18.10;97.70
68691;DHT22;55675;49.588;8.640;2022-10-16T05:05:58;18.10;97.60
68691;DHT22;55675;49.588;8.640;2022-10-16T05:08:24;18.00;97.60
68691;DHT22;55675;49.588;8.640;2022-10-16T05:10:49;18.00;97.50
68691;DHT22;55675;49.588;8.640;2022-10-16T05:13:15;18.00;97.50
68691;DHT22;55675;49.588;8.640;2022-10-16T05:15:40;18.00;97.60
68691;DHT22;55675;49.588;8.640;2022-10-16T05:18:06;17.90;97.70
68691;DHT22;55675;49.588;8.640;2022-10-16T05:20:31;17.90;97.80
68691;DHT22;55675;49.588;8.640;2022-10-16T05:22:57;17.90;97.90
68691;DHT22;55675;49.588;8.640;2022-10-16T05:25:22;17.90;97.90
68691;DHT22;55675;49.588;8.640;2022-10-16T05:27:48;17.90;97.90
68691;DHT22;55675;49.588;8.640;2022-10-16T05:30:15;17.90;97.90
68691;DHT22;55675;49.588;8.640;2022-10-16T05:32:40;17.90;97.80
68691;DHT22;55675;49.588;8.640;2022-10-16T05:35:06;17.90;97.70
68691;DHT22;55675;49.588;8.640;2022-10-16T05:37:32;18.00;97.70
68691;DHT22;55675;49.588;8.640;2022-10-16T05:39:58;18.00;97.50
68691;DHT22;55675;49.588;8.640;2022-10-16T05:42:23;18.00;97.50
68691;DHT22;55675;49.588;8.640;2022-10-16T05:44:49;18.00;97.50
68691;DHT22;55675;49.588;8.640;2022-10-16T05:47:14;18.00;97.50
68691;DHT22;55675;49.588;8.640;2022-10-16T05:49:40;18.10;97.50
68691;DHT22;55675;49.588;8.640;2022-10-16T05:52:06;18.10;97.40
68691;DHT22;55675;49.588;8.640;2022-10-16T05:54:32;18.00;97.30
68691;DHT22;55675;49.588;8.640;2022-10-16T05:56:57;18.00;97.30
68691;DHT22;55675;49.588;8.640;2022-10-16T05:59:23;18.00;97.20
68691;DHT22;55675;49.588;8.640;2022-10-16T06:01:48;18.10;97.20
68691;DHT22;55675;49.588;8.640;2022-10-16T06:04:14;18.10;97.10
68691;DHT22;55675;49.588;8.640;2022-10-16T06:06:40;18.10;97.00
68691;DHT22;55675;49.588;8.640;2022-10-16T06:09:05;18.10;97.10
68691;DHT22;55675;49.588;8.640;2022-10-16T06:11:32;18.20;97.10
68691;DHT22;55675;49.588;8.640;2022-10-16T06:14:00;18.20;97.10
68691;DHT22;55675;49.588;8.640;2022-10-16T06:16:28;18.20;97.10
68691;DHT22;55675;49.588;8.640;2022-10-16T06:18:55;18.20;97.10
68691;DHT22;55675;49.588;8.640;2022-10-16T06:21:23;18.30;96.90
68691;DHT22;55675;49.588;8.640;2022-10-16T06:23:52;18.30;96.90
68691;DHT22;55675;49.588;8.640;2022-10-16T06:26:20;18.30;96.90
68691;DHT22;55675;49.588;8.640;2022-10-16T06:28:46;18.40;96.90
68691;DHT22;55675;49.588;8.640;2022-10-16T06:31:12;18.40;96.80
68691;DHT22;55675;49.588;8.640;2022-10-16T06:33:38;18.40;96.60
68691;DHT22;55675;49.588;8.640;2022-10-16T06:38:32;18.40;96.60
68691;DHT22;55675;49.588;8.640;2022-10-16T06:40:58;18.50;96.60
68691;DHT22;55675;49.588;8.640;2022-10-16T06:43:24;18.50;96.60
68691;DHT22;55675;49.588;8.640;2022-10-16T06:45:56;18.50;96.60
68691;DHT22;55675;49.588;8.640;2022-10-16T06:48:23;18.60;96.60
68691;DHT22;55675;49.588;8.640;2022-10-16T06:51:06;18.60;96.50
68691;DHT22;55675;49.588;8.640;2022-10-16T06:53:36;18.60;96.50
68691;DHT22;55675;49.588;8.640;2022-10-16T06:56:13;18.60;96.80
68691;DHT22;55675;49.588;8.640;2022-10-16T06:58:40;18.70;96.60
68691;DHT22;55675;49.588;8.640;2022-10-16T07:01:06;18.70;96.80
68691;DHT22;55675;49.588;8.640;2022-10-16T07:03:31;18.80;96.50
68691;DHT22;55675;49.588;8.640;2022-10-16T07:06:01;18.80;96.50
68691;DHT22;55675;49.588;8.640;2022-10-16T07:08:27;18.90;96.50
68691;DHT22;55675;49.588;8.640;2022-10-16T07:11:04;18.90;96.40
68691;DHT22;55675;49.588;8.640;2022-10-16T07:13:33;18.90;96.30
68691;DHT22;55675;49.588;8.640;2022-10-16T07:16:07;19.00;96.10
68691;DHT22;55675;49.588;8.640;2022-10-16T07:18:33;19.00;96.20
68691;DHT22;55675;49.588;8.640;2022-10-16T07:21:09;19.00;96.20
68691;DHT22;55675;49.588;8.640;2022-10-16T07:23:36;19.10;96.30
68691;DHT22;55675;49.588;8.640;2022-10-16T07:26:01;19.10;96.20
68691;DHT22;55675;49.588;8.640;2022-10-16T07:28:27;19.20;96.30
68691;DHT22;55675;49.588;8.640;2022-10-16T07:30:53;19.30;96.20
68691;DHT22;55675;49.588;8.640;2022-10-16T07:33:19;19.40;96.20
68691;DHT22;55675;49.588;8.640;2022-10-16T07:35:50;19.50;96.10
68691;DHT22;55675;49.588;8.640;2022-10-16T07:38:15;19.60;96.00
68691;DHT22;55675;49.588;8.640;2022-10-16T07:40:41;19.60;95.70
68691;DHT22;55675;49.588;8.640;2022-10-16T07:43:07;19.70;95.60
68691;DHT22;55675;49.588;8.640;2022-10-16T07:45:32;19.70;95.30
68691;DHT22;55675;49.588;8.640;2022-10-16T07:47:58;19.70;95.20
68691;DHT22;55675;49.588;8.640;2022-10-16T07:50:23;19.70;94.90
68691;DHT22;55675;49.588;8.640;2022-10-16T07:52:49;19.70;94.90
68691;DHT22;55675;49.588;8.640;2022-10-16T07:55:14;19.70;94.90
68691;DHT22;55675;49.588;8.640;2022-10-16T07:57:40;19.70;94.80
68691;DHT22;55675;49.588;8.640;2022-10-16T08:00:06;19.70;94.90
68691;DHT22;55675;49.588;8.640;2022-10-16T08:02:31;19.70;94.80
68691;DHT22;55675;49.588;8.640;2022-10-16T08:04:57;19.70;95.00
68691;DHT22;55675;49.588;8.640;2022-10-16T08:07:23;19.70;95.10
68691;DHT22;55675;49.588;8.640;2022-10-16T08:09:51;19.80;95.20
68691;DHT22;55675;49.588;8.640;2022-10-16T08:12:17;19.90;95.00
68691;DHT22;55675;49.588;8.640;2022-10-16T08:14:43;19.90;94.90
68691;DHT22;55675;49.588;8.640;2022-10-16T08:17:08;20.00;94.70
68691;DHT22;55675;49.588;8.640;2022-10-16T08:19:34;20.00;94.80
68691;DHT22;55675;49.588;8.640;2022-10-16T08:22:00;20.00;94.80
68691;DHT22;55675;49.588;8.640;2022-10-16T08:24:26;19.90;94.70
68691;DHT22;55675;49.588;8.640;2022-10-16T08:26:54;19.90;94.60
68691;DHT22;55675;49.588;8.640;2022-10-16T08:29:19;19.90;94.50
68691;DHT22;55675;49.588;8.640;2022-10-16T08:31:45;19.80;94.50
68691;DHT22;55675;49.588;8.640;2022-10-16T08:34:10;19.80;94.80
68691;DHT22;55675;49.588;8.640;2022-10-16T08:36:36;19.70;94.60
68691;DHT22;55675;49.588;8.640;2022-10-16T08:39:02;19.70;94.70
68691;DHT22;55675;49.588;8.640;2022-10-16T08:41:49;19.70;95.00
68691;DHT22;55675;49.588;8.640;2022-10-16T08:45:01;19.60;95.10
68691;DHT22;55675;49.588;8.640;2022-10-16T08:48:04;19.60;95.10
68691;DHT22;55675;49.588;8.640;2022-10-16T08:50:32;19.50;95.20
68691;DHT22;55675;49.588;8.640;2022-10-16T08:53:01;19.40;95.30
68691;DHT22;55675;49.588;8.640;2022-10-16T08:55:46;19.40;95.50
68691;DHT22;55675;49.588;8.640;2022-10-16T08:58:17;19.30;95.50
68691;DHT22;55675;49.588;8.640;2022-10-16T09:00:50;19.20;96.00
68691;DHT22;55675;49.588;8.640;2022-10-16T09:06:25;19.10;96.40
68691;DHT22;55675;49.588;8.640;2022-10-16T09:12:04;19.00;96.40
68691;DHT22;55675;49.588;8.640;2022-10-16T09:22:46;19.10;96.00
68691;DHT22;55675;49.588;8.640;2022-10-16T09:25:14;19.10;96.00
68691;DHT22;55675;49.588;8.640;2022-10-16T09:27:42;19.20;96.10
68691;DHT22;55675;49.588;8.640;2022-10-16T09:30:17;19.40;96.00
68691;DHT22;55675;49.588;8.640;2022-10-16T09:32:46;19.50;95.80
68691;DHT22;55675;49.588;8.640;2022-10-16T09:35:39;19.80;95.80
68691;DHT22;55675;49.588;8.640;2022-10-16T09:38:05;20.10;95.60
68691;DHT22;55675;49.588;8.640;2022-10-16T09:40:34;20.40;95.20
68691;DHT22;55675;49.588;8.640;2022-10-16T09:45:59;20.90;94.30
68691;DHT22;55675;49.588;8.640;2022-10-16T09:48:31;21.10;94.20
68691;DHT22;55675;49.588;8.640;2022-10-16T09:51:02;21.30;93.60
68691;DHT22;55675;49.588;8.640;2022-10-16T09:53:45;21.30;93.20
68691;DHT22;55675;49.588;8.640;2022-10-16T09:56:20;21.40;93.00
68691;DHT22;55675;49.588;8.640;2022-10-16T09:58:54;21.50;92.70
68691;DHT22;55675;49.588;8.640;2022-10-16T10:01:21;21.40;92.90
68691;DHT22;55675;49.588;8.640;2022-10-16T10:03:48;21.40;92.40
68691;DHT22;55675;49.588;8.640;2022-10-16T10:06:27;21.40;92.00
68691;DHT22;55675;49.588;8.640;2022-10-16T10:08:58;21.30;92.00
68691;DHT22;55675;49.588;8.640;2022-10-16T10:14:13;21.40;92.10
68691;DHT22;55675;49.588;8.640;2022-10-16T10:16:40;21.40;92.20
68691;DHT22;55675;49.588;8.640;2022-10-16T10:19:22;21.40;91.30
68691;DHT22;55675;49.588;8.640;2022-10-16T10:21:52;21.50;91.40
68691;DHT22;55675;49.588;8.640;2022-10-16T10:24:19;21.50;91.00
68691;DHT22;55675;49.588;8.640;2022-10-16T10:26:54;21.60;91.50
68691;DHT22;55675;49.588;8.640;2022-10-16T10:29:32;21.70;91.60
68691;DHT22;55675;49.588;8.640;2022-10-16T10:32:23;21.80;91.80
68691;DHT22;55675;49.588;8.640;2022-10-16T10:40:07;22.40;91.30
68691;DHT22;55675;49.588;8.640;2022-10-16T10:43:12;22.60;90.80
68691;DHT22;55675;49.588;8.640;2022-10-16T10:45:48;22.60;90.50
68691;DHT22;55675;49.588;8.640;2022-10-16T10:48:41;22.60;89.30
68691;DHT22;55675;49.588;8.640;2022-10-16T10:51:43;22.50;88.20
68691;DHT22;55675;49.588;8.640;2022-10-16T10:54:17;22.50;89.30
68691;DHT22;55675;49.588;8.640;2022-10-16T10:57:09;22.40;89.50
68691;DHT22;55675;49.588;8.640;2022-10-16T11:05:03;22.40;88.30
68691;DHT22;55675;49.588;8.640;2022-10-16T11:07:41;22.40;87.90
68691;DHT22;55675;49.588;8.640;2022-10-16T11:10:18;22.50;90.00
68691;DHT22;55675;49.588;8.640;2022-10-16T11:12:49;22.60;89.90
68691;DHT22;55675;49.588;8.640;2022-10-16T11:15:29;22.60;89.50
68691;DHT22;55675;49.588;8.640;2022-10-16T11:20:51;22.70;88.00
68691;DHT22;55675;49.588;8.640;2022-10-16T11:25:48;22.80;88.00
68691;DHT22;55675;49.588;8.640;2022-10-16T11:28:37;22.90;85.90
68691;DHT22;55675;49.588;8.640;2022-10-16T11:34:10;23.10;82.00
68691;DHT22;55675;49.588;8.640;2022-10-16T11:36:44;23.20;83.10
68691;DHT22;55675;49.588;8.640;2022-10-16T11:39:26;23.20;81.60
68691;DHT22;55675;49.588;8.640;2022-10-16T11:44:32;23.40;79.40
68691;DHT22;55675;49.588;8.640;2022-10-16T11:47:10;23.30;79.80
68691;DHT22;55675;49.588;8.640;2022-10-16T11:49:39;23.40;81.30
68691;DHT22;55675;49.588;8.640;2022-10-16T11:57:32;24.00;81.20
68691;DHT22;55675;49.588;8.640;2022-10-16T12:00:04;24.30;79.90
68691;DHT22;55675;49.588;8.640;2022-10-16T12:05:22;25.00;75.90
68691;DHT22;55675;49.588;8.640;2022-10-16T12:08:12;25.30;75.00
68691;DHT22;55675;49.588;8.640;2022-10-16T12:10:40;25.30;72.80
68691;DHT22;55675;49.588;8.640;2022-10-16T12:13:29;25.40;74.00
68691;DHT22;55675;49.588;8.640;2022-10-16T12:16:06;25.50;72.50
68691;DHT22;55675;49.588;8.640;2022-10-16T12:18:32;25.70;70.20
68691;DHT22;55675;49.588;8.640;2022-10-16T12:20:59;25.70;69.70
68691;DHT22;55675;49.588;8.640;2022-10-16T12:23:30;25.40;69.90
68691;DHT22;55675;49.588;8.640;2022-10-16T12:25:57;25.30;69.80
68691;DHT22;55675;49.588;8.640;2022-10-16T12:28:31;25.00;71.50
68691;DHT22;55675;49.588;8.640;2022-10-16T12:31:03;25.00;73.20
68691;DHT22;55675;49.588;8.640;2022-10-16T12:33:33;24.90;72.00
68691;DHT22;55675;49.588;8.640;2022-10-16T12:36:02;24.90;73.00
68691;DHT22;55675;49.588;8.640;2022-10-16T12:38:50;24.70;71.80
68691;DHT22;55675;49.588;8.640;2022-10-16T12:41:34;24.60;72.50
68691;DHT22;55675;49.588;8.640;2022-10-16T12:44:00;24.50;72.70
68691;DHT22;55675;49.588;8.640;2022-10-16T12:51:37;24.50;73.60
68691;DHT22;55675;49.588;8.640;2022-10-16T13:15:47;27.00;65.10
68691;DHT22;55675;49.588;8.640;2022-10-16T13:18:22;26.80;67.00
68691;DHT22;55675;49.588;8.640;2022-10-16T13:24:13;26.30;67.70
68691;DHT22;55675;49.588;8.640;2022-10-16T13:29:41;25.70;69.10
68691;DHT22;55675;49.588;8.640;2022-10-16T13:32:10;25.30;70.60
68691;DHT22;55675;49.588;8.640;2022-10-16T13:34:48;25.10;69.60
68691;DHT22;55675;49.588;8.640;2022-10-16T13:37:25;24.80;71.00
68691;DHT22;55675;49.588;8.640;2022-10-16T13:39:50;24.60;72.90
68691;DHT22;55675;49.588;8.640;2022-10-16T13:42:27;24.40;74.00
68691;DHT22;55675;49.588;8.640;2022-10-16T13:44:54;24.20;74.50
68691;DHT22;55675;49.588;8.640;2022-10-16T13:47:23;24.10;75.30
68691;DHT22;55675;49.588;8.640;2022-10-16T13:50:11;24.00;76.10
68691;DHT22;55675;49.588;8.640;2022-10-16T13:52:37;23.90;76.90
68691;DHT22;55675;49.588;8.640;2022-10-16T13:55:04;23.80;77.30
68691;DHT22;55675;49.588;8.640;2022-10-16T13:57:35;23.70;76.40
68691;DHT22;55675;49.588;8.640;2022-10-16T14:00:01;23.70;77.20
68691;DHT22;55675;49.588;8.640;2022-10-16T14:02:36;23.70;77.80
68691;DHT22;55675;49.588;8.640;2022-10-16T14:05:04;23.70;78.00
68691;DHT22;55675;49.588;8.640;2022-10-16T14:07:34;23.60;79.70
68691;DHT22;55675;49.588;8.640;2022-10-16T14:10:02;23.60;80.60
68691;DHT22;55675;49.588;8.640;2022-10-16T14:12:28;23.50;79.10
68691;DHT22;55675;49.588;8.640;2022-10-16T14:14:55;23.50;78.30
68691;DHT22;55675;49.588;8.640;2022-10-16T14:17:24;23.50;79.50
68691;DHT22;55675;49.588;8.640;2022-10-16T14:19:54;23.50;78.40
68691;DHT22;55675;49.588;8.640;2022-10-16T14:22:29;23.40;78.50
68691;DHT22;55675;49.588;8.640;2022-10-16T14:24:55;23.30;78.30
68691;DHT22;55675;49.588;8.640;2022-10-16T14:27:34;23.30;79.00
68691;DHT22;55675;49.588;8.640;2022-10-16T14:30:16;23.30;81.20
68691;DHT22;55675;49.588;8.640;2022-10-16T14:32:56;23.30;80.80
68691;DHT22;55675;49.588;8.640;2022-10-16T14:35:29;23.30;80.30
68691;DHT22;55675;49.588;8.640;2022-10-16T14:37:55;23.20;79.90
68691;DHT22;55675;49.588;8.640;2022-10-16T14:40:24;23.20;81.60
68691;DHT22;55675;49.588;8.640;2022-10-16T14:42:51;23.10;82.00
68691;DHT22;55675;49.588;8.640;2022-10-16T14:45:22;23.10;82.20
68691;DHT22;55675;49.588;8.640;2022-10-16T14:47:54;23.00;81.30
68691;DHT22;55675;49.588;8.640;2022-10-16T14:50:21;23.00;82.50
68691;DHT22;55675;49.588;8.640;2022-10-16T14:52:47;23.00;83.20
68691;DHT22;55675;49.588;8.640;2022-10-16T14:55:13;22.90;82.90
68691;DHT22;55675;49.588;8.640;2022-10-16T14:57:39;22.80;84.00
68691;DHT22;55675;49.588;8.640;2022-10-16T15:00:24;22.80;83.00
68691;DHT22;55675;49.588;8.640;2022-10-16T15:02:50;22.70;82.50
68691;DHT22;55675;49.588;8.640;2022-10-16T15:05:21;22.70;82.20
68691;DHT22;55675;49.588;8.640;2022-10-16T15:07:49;22.80;82.60
68691;DHT22;55675;49.588;8.640;2022-10-16T15:10:17;22.80;81.40
68691;DHT22;55675;49.588;8.640;2022-10-16T15:12:44;22.90;80.80
68691;DHT22;55675;49.588;8.640;2022-10-16T15:17:50;23.20;82.10
68691;DHT22;55675;49.588;8.640;2022-10-16T15:20:19;23.80;82.70
68691;DHT22;55675;49.588;8.640;2022-10-16T15:22:44;24.50;80.70
68691;DHT22;55675;49.588;8.640;2022-10-16T15:25:30;25.20;78.50
68691;DHT22;55675;49.588;8.640;2022-10-16T15:27:56;25.70;73.10
68691;DHT22;55675;49.588;8.640;2022-10-16T15:30:22;25.90;71.40
68691;DHT22;55675;49.588;8.640;2022-10-16T15:32:48;25.80;71.10
68691;DHT22;55675;49.588;8.640;2022-10-16T15:35:13;25.60;71.20
68691;DHT22;55675;49.588;8.640;2022-10-16T15:37:39;25.40;69.80
68691;DHT22;55675;49.588;8.640;2022-10-16T15:40:05;25.30;71.30
68691;DHT22;55675;49.588;8.640;2022-10-16T15:42:30;25.10;72.00
68691;DHT22;55675;49.588;8.640;2022-10-16T15:44:56;25.10;70.70
68691;DHT22;55675;49.588;8.640;2022-10-16T15:47:21;25.00;73.60
68691;DHT22;55675;49.588;8.640;2022-10-16T15:49:47;25.10;73.30
68691;DHT22;55675;49.588;8.640;2022-10-16T15:52:12;25.40;73.10
68691;DHT22;55675;49.588;8.640;2022-10-16T15:54:38;25.90;72.60
68691;DHT22;55675;49.588;8.640;2022-10-16T15:57:03;26.80;70.00
68691;DHT22;55675;49.588;8.640;2022-10-16T15:59:29;27.40;67.50
68691;DHT22;55675;49.588;8.640;2022-10-16T16:01:55;27.20;66.00
68691;DHT22;55675;49.588;8.640;2022-10-16T16:04:21;26.80;66.20
68691;DHT22;55675;49.588;8.640;2022-10-16T16:06:46;26.40;66.20
68691;DHT22;55675;49.588;8.640;2022-10-16T16:09:13;25.90;67.00
68691;DHT22;55675;49.588;8.640;2022-10-16T16:11:39;25.60;68.00
68691;DHT22;55675;49.588;8.640;2022-10-16T16:14:06;25.30;68.80
68691;DHT22;55675;49.588;8.640;2022-10-16T16:16:32;24.90;70.00
68691;DHT22;55675;49.588;8.640;2022-10-16T16:19:02;24.70;70.70
68691;DHT22;55675;49.588;8.640;2022-10-16T16:21:28;24.40;70.30
68691;DHT22;55675;49.588;8.640;2022-10-16T16:23:54;24.10;71.00
68691;DHT22;55675;49.588;8.640;2022-10-16T16:26:30;23.80;71.10
68691;DHT22;55675;49.588;8.640;2022-10-16T16:29:02;23.40;72.10
68691;DHT22;55675;49.588;8.640;2022-10-16T16:31:29;23.10;73.60
68691;DHT22;55675;49.588;8.640;2022-10-16T16:33:55;22.70;74.40
68691;DHT22;55675;49.588;8.640;2022-10-16T16:36:22;22.50;75.70
68691;DHT22;55675;49.588;8.640;2022-10-16T16:38:48;22.20;77.50
68691;DHT22;55675;49.588;8.640;2022-10-16T16:41:19;22.00;77.60
68691;DHT22;55675;49.588;8.640;2022-10-16T16:43:45;21.80;78.50
68691;DHT22;55675;49.588;8.640;2022-10-16T16:46:12;21.70;79.30
68691;DHT22;55675;49.588;8.640;2022-10-16T16:48:38;21.60;80.00
68691;DHT22;55675;49.588;8.640;2022-10-16T16:51:09;21.40;80.80
68691;DHT22;55675;49.588;8.640;2022-10-16T16:53:37;21.20;81.00
68691;DHT22;55675;49.588;8.640;2022-10-16T16:56:05;21.00;81.80
68691;DHT22;55675;49.588;8.640;2022-10-16T16:58:32;20.90;81.80
68691;DHT22;55675;49.588;8.640;2022-10-16T17:00:58;20.80;81.70
68691;DHT22;55675;49.588;8.640;2022-10-16T17:03:27;20.80;81.90
68691;DHT22;55675;49.588;8.640;2022-10-16T17:06:19;20.70;82.20
68691;DHT22;55675;49.588;8.640;2022-10-16T17:08:45;20.60;82.10
68691;DHT22;55675;49.588;8.640;2022-10-16T17:11:16;20.50;82.70
68691;DHT22;55675;49.588;8.640;2022-10-16T17:13:43;20.40;82.80
68691;DHT22;55675;49.588;8.640;2022-10-16T17:16:09;20.30;83.40
68691;DHT22;55675;49.588;8.640;2022-10-16T17:18:35;20.10;84.30
68691;DHT22;55675;49.588;8.640;2022-10-16T17:21:02;20.10;83.90
68691;DHT22;55675;49.588;8.640;2022-10-16T17:23:28;20.00;84.40
68691;DHT22;55675;49.588;8.640;2022-10-16T17:25:54;19.90;85.10
68691;DHT22;55675;49.588;8.640;2022-10-16T17:28:20;19.90;85.50